Aérodrome :
LOGIN :

S'inscrire | Disclaimer

   EN    FR    IT 

 










Légende :    VFR   VFR Marginal   IFR   IFR Intensif   IFR Très Intensif
Visi : 
Plafond : 
>= 8 km
>= 3000ft
5 à 8 km
1000 à 3000 ft
1500m à 5 km
500 à 1000 ft
800 à 1500m
200 à 500 ft
< 800m
< 200 ft
Symboles :   Orages  Brouillard  Fortes neiges  Fortes précipitations  Vent > 20 kt
SIGMETs :   Divers  Orages  Givrage  Turbulence  Onde Orograph.  Cendres Volcan.






- Altitude de l'aérodrome : 526 ft
- Code IATA : LTN


EGGW - London Luton

DERNIER METAR :
  • 030550Z AUTO 15002KT 7000 SCT019 12/11 Q1013

METARs EXPIRÉS :
  • 030520Z AUTO VRB01KT 8000 SCT016 12/11 Q1013
  • 030450Z AUTO 09002KT 9999 FEW016 11/10 Q1013
  • 030420Z AUTO VRB03KT 9000 BKN015 11/10 Q1013
  • 030350Z AUTO 12003KT 9999 NCD 11/10 Q1013
  • 030320Z AUTO 12001KT 9999 NCD 11/10 Q1013

TAF TAF EGGW
Valide du 03 à 06h jusqu'au 04 à 06h UTC


030450Z 0306/0406 18004KT 9999 SCT030
TEMPO 0306/0308 8000 BKN007
PROB30 0306/0308 3000 BR BKN004
PROB30
TEMPO 0310/0320 7000 SHRA
ATIS : +44 1582 395 204



MET'MAP, la Météo Aéronautique d'un coup d'oeil ! - Copyright ORBIFLY Décembre 2007 - Disclaimer

ORBIFLY MET'MAP TEAM :

Programmation & Développement : Alexandra Zaïnal
Sur une idée originale de : Baudouin d'Aumeries
Assistance à la programmation : Marc-Olivier Méhu
Soutien technique & logistique : Manuel Goepfert

Contact : metmap@orbifly.com




SOURCES & CREDITS :

   NOAA